createdAt,value
2019-05-01T00:00:15.809Z,16.70
2019-05-01T00:02:59.817Z,16.60
2019-05-01T00:05:37.606Z,16.60
2019-05-01T00:08:13.376Z,16.50
2019-05-01T00:10:47.738Z,16.70
2019-05-01T00:13:24.631Z,16.90
2019-05-01T00:15:59.059Z,17.00
2019-05-01T00:18:36.705Z,16.90
2019-05-01T00:21:15.279Z,16.80
2019-05-01T00:23:52.542Z,17.00
2019-05-01T00:26:27.402Z,17.20
2019-05-01T00:29:02.026Z,17.20
2019-05-01T00:31:39.855Z,17.30
2019-05-01T00:34:15.437Z,17.30
2019-05-01T00:36:49.336Z,17.30
2019-05-01T00:39:30.129Z,17.40
2019-05-01T00:42:02.399Z,17.30
2019-05-01T00:44:37.003Z,17.30
2019-05-01T00:47:11.512Z,17.50
2019-05-01T00:49:49.178Z,17.50
2019-05-01T00:52:22.894Z,17.70
2019-05-01T00:54:59.144Z,17.90
2019-05-01T00:57:46.652Z,17.90
2019-05-01T01:00:43.307Z,17.80
2019-05-01T01:03:16.807Z,17.90
2019-05-01T01:05:51.640Z,18.20
2019-05-01T01:08:26.117Z,18.40
2019-05-01T01:11:01.604Z,18.40
2019-05-01T01:13:36.281Z,18.50
2019-05-01T01:16:10.481Z,18.60
2019-05-01T01:18:45.522Z,18.70
2019-05-01T01:21:22.932Z,18.70
2019-05-01T01:23:59.413Z,18.80
2019-05-01T01:26:35.621Z,19.00
2019-05-01T01:29:10.291Z,19.10
2019-05-01T01:31:48.437Z,19.10
2019-05-01T01:34:24.469Z,19.10
2019-05-01T01:37:03.963Z,19.00
2019-05-01T01:39:42.972Z,19.00
2019-05-01T01:42:19.075Z,19.10
2019-05-01T01:45:01.337Z,19.30
2019-05-01T01:47:37.226Z,19.30
2019-05-01T01:50:12.723Z,19.30
2019-05-01T01:52:50.156Z,19.20
2019-05-01T01:55:24.621Z,19.60
2019-05-01T01:58:07.469Z,19.80
2019-05-01T02:01:10.336Z,20.00
2019-05-01T02:04:04.233Z,20.30
2019-05-01T02:06:40.003Z,20.20
2019-05-01T02:09:18.756Z,20.00
2019-05-01T02:11:53.293Z,20.00
2019-05-01T02:14:30.687Z,20.20
2019-05-01T02:17:07.577Z,20.00
2019-05-01T02:19:43.439Z,19.90
2019-05-01T02:22:20.250Z,20.00
2019-05-01T02:24:54.902Z,20.10
2019-05-01T02:27:30.535Z,20.10
2019-05-01T02:30:09.130Z,20.40
2019-05-01T02:32:44.344Z,20.90
2019-05-01T02:35:20.621Z,21.00
2019-05-01T02:37:56.631Z,21.20
2019-05-01T02:40:50.306Z,21.40
2019-05-01T02:43:28.342Z,21.10
2019-05-01T02:46:09.107Z,21.00
2019-05-01T02:48:46.752Z,21.00
2019-05-01T02:51:22.381Z,20.90
2019-05-01T02:54:01.994Z,21.00
2019-05-01T02:56:41.041Z,20.90
2019-05-01T02:59:16.569Z,21.00
2019-05-01T03:01:55.506Z,21.40
2019-05-01T03:04:30.746Z,21.70
2019-05-01T03:07:06.497Z,21.50
2019-05-01T03:09:46.315Z,21.50
2019-05-01T03:12:26.808Z,21.80
2019-05-01T03:15:00.142Z,21.50
2019-05-01T03:17:51.302Z,21.50
2019-05-01T03:20:43.609Z,21.70
2019-05-01T03:23:26.421Z,22.10
2019-05-01T03:26:04.224Z,22.30
2019-05-01T03:28:36.985Z,22.80
2019-05-01T03:31:13.091Z,22.80
2019-05-01T03:33:47.650Z,22.70
2019-05-01T03:36:23.821Z,22.70
2019-05-01T03:39:01.462Z,22.80
2019-05-01T03:41:36.177Z,22.80
2019-05-01T03:44:12.032Z,22.70
2019-05-01T03:46:46.620Z,22.80
2019-05-01T03:49:22.237Z,23.00
2019-05-01T03:51:57.206Z,23.30
2019-05-01T03:54:33.185Z,23.50
2019-05-01T03:57:12.711Z,24.00
2019-05-01T03:59:49.242Z,24.20
2019-05-01T04:02:33.483Z,24.00
2019-05-01T04:05:00.924Z,23.80
2019-05-01T04:07:36.503Z,23.70
2019-05-01T04:10:11.386Z,23.70
2019-05-01T04:12:48.839Z,23.70
2019-05-01T04:15:22.852Z,23.40
2019-05-01T04:17:59.879Z,23.40
2019-05-01T04:20:34.101Z,23.60
2019-05-01T04:23:14.525Z,23.60
2019-05-01T04:37:42.835Z,23.90
2019-05-01T04:46:32.256Z,24.70
2019-05-01T04:49:05.878Z,24.40
2019-05-01T04:51:53.249Z,24.20
2019-05-01T04:54:35.745Z,24.20
2019-05-01T04:57:09.110Z,24.60
2019-05-01T05:00:30.915Z,24.70
2019-05-01T05:02:38.225Z,25.10
2019-05-01T05:11:45.339Z,24.90
2019-05-01T05:20:46.283Z,25.50
2019-05-01T05:23:48.135Z,25.40
2019-05-01T05:29:34.222Z,25.90
2019-05-01T05:38:31.240Z,25.50
2019-05-01T05:41:10.093Z,25.50
2019-05-01T05:41:56.228Z,25.70
2019-05-01T05:47:25.419Z,25.70
2019-05-01T05:50:19.674Z,25.80
2019-05-01T05:53:15.313Z,25.50
2019-05-01T05:55:56.879Z,25.80
2019-05-01T06:02:18.114Z,26.40
2019-05-01T06:08:18.928Z,26.20
2019-05-01T06:17:43.937Z,26.50
2019-05-01T06:29:58.009Z,27.00
2019-05-01T06:32:33.451Z,27.10
2019-05-01T06:35:27.782Z,27.20
2019-05-01T06:38:50.258Z,27.10
2019-05-01T06:44:43.911Z,27.00
2019-05-01T06:47:26.006Z,27.10
2019-05-01T06:50:21.969Z,27.00
2019-05-01T06:56:11.241Z,26.90
2019-05-01T07:01:53.123Z,27.10
2019-05-01T07:04:51.212Z,27.50
2019-05-01T07:08:00.046Z,27.60
2019-05-01T07:10:30.757Z,27.30
2019-05-01T07:13:16.414Z,27.50
2019-05-01T07:15:48.404Z,27.60
2019-05-01T07:21:37.226Z,28.00
2019-05-01T07:27:37.960Z,27.70
2019-05-01T07:42:48.134Z,28.00
2019-05-01T07:45:46.227Z,27.90
2019-05-01T07:48:41.747Z,27.70
2019-05-01T07:51:50.072Z,28.00
2019-05-01T07:57:23.156Z,28.10
2019-05-01T08:00:43.298Z,28.20
2019-05-01T08:09:15.114Z,28.10
2019-05-01T08:11:55.231Z,28.10
2019-05-01T08:14:31.298Z,28.20
2019-05-01T08:17:25.863Z,28.30
2019-05-01T08:20:30.272Z,28.50
2019-05-01T08:23:16.144Z,28.70
2019-05-01T08:26:08.663Z,28.70
2019-05-01T08:29:06.902Z,29.00
2019-05-01T08:44:24.794Z,28.10
2019-05-01T08:57:38.987Z,28.50
2019-05-01T08:59:49.621Z,28.50
2019-05-01T09:05:57.472Z,28.00
2019-05-01T09:08:48.471Z,27.80
2019-05-01T09:11:44.497Z,28.30
2019-05-01T09:17:35.499Z,28.20
2019-05-01T09:20:50.183Z,28.10
2019-05-01T09:26:39.400Z,27.90
2019-05-01T09:29:39.079Z,27.70
2019-05-01T09:32:26.027Z,27.70
2019-05-01T09:34:58.714Z,27.70
2019-05-01T09:37:44.344Z,27.70
2019-05-01T09:41:13.088Z,27.80
2019-05-01T09:52:27.184Z,27.30
2019-05-01T09:58:44.026Z,27.10
2019-05-01T10:01:06.375Z,26.90
2019-05-01T10:03:54.525Z,26.70
2019-05-01T10:06:47.615Z,26.50
2019-05-01T10:10:12.082Z,26.30
2019-05-01T10:15:31.151Z,25.80
2019-05-01T10:18:30.622Z,25.50
2019-05-01T10:24:15.229Z,25.00
2019-05-01T10:30:13.346Z,24.80
2019-05-01T13:05:44.810Z,20.10
2019-05-01T13:14:16.508Z,20.20
2019-05-01T13:26:31.104Z,20.00
2019-05-01T13:32:44.444Z,19.80
2019-05-01T13:37:54.747Z,19.80
2019-05-01T13:56:31.269Z,19.60
2019-05-01T13:59:30.879Z,19.50
2019-05-01T14:02:12.549Z,19.50
2019-05-01T14:04:48.022Z,19.60
2019-05-01T14:15:57.605Z,19.40
2019-05-01T14:18:29.720Z,19.30
2019-05-01T14:33:30.914Z,19.50
2019-05-01T14:36:07.049Z,19.50
2019-05-01T14:39:45.637Z,19.50
2019-05-01T14:41:48.033Z,19.50
2019-05-01T14:47:52.748Z,19.30
2019-05-01T14:50:36.102Z,19.30
2019-05-01T14:53:13.511Z,19.30
2019-05-01T14:56:11.669Z,19.30
2019-05-01T15:08:34.654Z,19.30
2019-05-01T15:14:42.939Z,19.10
2019-05-01T15:17:42.662Z,19.00
2019-05-01T15:23:15.282Z,18.90
2019-05-01T15:26:09.783Z,18.80
2019-05-01T15:35:40.547Z,18.80
2019-05-01T15:38:45.131Z,18.90
2019-05-01T15:41:54.249Z,18.80
2019-05-01T15:54:02.527Z,18.90
2019-05-01T15:56:36.333Z,18.80
2019-05-01T16:02:21.741Z,18.70
2019-05-01T16:05:33.343Z,18.70
2019-05-01T16:08:09.145Z,18.70
2019-05-01T16:10:45.324Z,18.70
2019-05-01T16:13:35.539Z,18.60
2019-05-01T16:16:11.541Z,18.60
2019-05-01T16:18:59.493Z,18.60
2019-05-01T16:21:45.719Z,18.70
2019-05-01T16:24:34.473Z,18.80
2019-05-01T16:27:10.010Z,18.70
2019-05-01T16:38:56.989Z,18.50
2019-05-01T16:41:58.773Z,18.40
2019-05-01T16:44:29.117Z,18.40
2019-05-01T16:47:08.680Z,18.40
2019-05-01T16:49:47.745Z,18.40
2019-05-01T16:55:23.046Z,18.50
2019-05-01T16:58:04.562Z,18.60
2019-05-01T17:04:08.792Z,18.50
2019-05-01T17:06:55.119Z,18.50
2019-05-01T17:09:52.303Z,18.40
2019-05-01T17:12:36.586Z,18.30
2019-05-01T17:15:25.188Z,18.40
2019-05-01T17:18:08.071Z,18.30
2019-05-01T17:20:54.790Z,18.30
2019-05-01T17:23:29.917Z,18.40
2019-05-01T17:26:14.985Z,18.30
2019-05-01T17:29:05.451Z,18.40
2019-05-01T17:31:43.585Z,18.30
2019-05-01T17:34:25.480Z,18.30
2019-05-01T17:36:56.525Z,18.20
2019-05-01T17:39:42.506Z,18.20
2019-05-01T17:45:34.696Z,18.20
2019-05-01T17:48:13.551Z,18.40
2019-05-01T17:50:47.139Z,18.40
2019-05-01T17:53:29.747Z,18.40
2019-05-01T17:56:04.385Z,18.40
2019-05-01T17:58:53.513Z,18.50
2019-05-01T18:01:35.811Z,18.50
2019-05-01T18:04:15.432Z,18.40
2019-05-01T18:06:51.310Z,18.40
2019-05-01T18:09:27.611Z,18.40
2019-05-01T18:12:07.677Z,18.30
2019-05-01T18:14:52.793Z,18.40
2019-05-01T18:17:30.254Z,18.40
2019-05-01T18:20:10.157Z,18.40
2019-05-01T18:23:12.470Z,18.40
2019-05-01T18:26:04.711Z,18.30
2019-05-01T18:29:00.867Z,18.20
2019-05-01T18:31:36.286Z,18.20
2019-05-01T18:34:15.088Z,18.20
2019-05-01T18:36:50.039Z,18.10
2019-05-01T18:42:30.561Z,18.10
2019-05-01T18:45:12.428Z,18.00
2019-05-01T18:47:46.236Z,18.00
2019-05-01T18:50:19.119Z,18.00
2019-05-01T18:52:57.203Z,17.90
2019-05-01T18:55:33.443Z,18.00
2019-05-01T18:58:09.971Z,18.00
2019-05-01T19:00:46.162Z,18.00
2019-05-01T19:03:22.324Z,18.00
2019-05-01T19:05:55.886Z,18.00
2019-05-01T19:08:34.658Z,18.00
2019-05-01T19:11:12.711Z,18.00
2019-05-01T19:13:44.004Z,18.00
2019-05-01T19:16:22.134Z,18.00
2019-05-01T19:18:55.763Z,17.90
2019-05-01T19:21:30.055Z,18.00
2019-05-01T19:24:07.360Z,18.10
2019-05-01T19:26:44.142Z,18.10
2019-05-01T19:29:17.625Z,18.10
2019-05-01T19:31:52.993Z,18.20
2019-05-01T19:34:27.167Z,18.10
2019-05-01T19:37:04.896Z,17.90
2019-05-01T19:39:43.933Z,17.80
2019-05-01T19:42:13.618Z,17.80
2019-05-01T19:44:51.070Z,17.70
2019-05-01T19:47:21.725Z,17.80
2019-05-01T19:49:55.407Z,17.80
2019-05-01T19:52:27.455Z,17.80
2019-05-01T19:55:05.882Z,17.80
2019-05-01T19:57:36.164Z,17.80
2019-05-01T20:00:08.233Z,17.80
2019-05-01T20:02:43.180Z,17.70
2019-05-01T20:05:16.610Z,17.70
2019-05-01T20:07:55.647Z,17.70
2019-05-01T20:10:27.481Z,17.70
2019-05-01T20:13:01.295Z,17.60
2019-05-01T20:15:33.490Z,17.60
2019-05-01T20:18:10.638Z,17.60
2019-05-01T20:20:44.337Z,17.60
2019-05-01T20:23:17.831Z,17.50
2019-05-01T20:25:55.744Z,17.50
2019-05-01T20:28:25.992Z,17.50
2019-05-01T20:30:59.387Z,17.60
2019-05-01T20:33:38.110Z,17.60
2019-05-01T20:36:07.970Z,17.80
2019-05-01T20:38:49.138Z,17.50
2019-05-01T20:41:22.564Z,17.60
2019-05-01T20:43:56.075Z,17.50
2019-05-01T20:46:29.491Z,17.40
2019-05-01T20:49:06.495Z,17.40
2019-05-01T20:51:40.225Z,17.40
2019-05-01T20:54:15.720Z,17.40
2019-05-01T20:56:53.176Z,17.50
2019-05-01T20:59:29.474Z,17.60
2019-05-01T21:02:08.020Z,17.60
2019-05-01T21:04:49.534Z,17.50
2019-05-01T21:07:29.332Z,17.30
2019-05-01T21:10:04.925Z,17.30
2019-05-01T21:12:38.579Z,17.30
2019-05-01T21:15:13.996Z,17.30
2019-05-01T21:17:49.314Z,17.30
2019-05-01T21:20:23.872Z,17.40
2019-05-01T21:23:11.659Z,17.40
2019-05-01T21:25:50.186Z,17.50
2019-05-01T21:28:24.123Z,17.40
2019-05-01T21:30:57.655Z,17.20
2019-05-01T21:33:34.265Z,17.10
2019-05-01T21:36:08.489Z,17.30
2019-05-01T21:38:45.405Z,17.30
2019-05-01T21:41:22.372Z,17.20
2019-05-01T21:43:58.539Z,17.30
2019-05-01T21:46:34.585Z,17.10
2019-05-01T21:49:10.402Z,17.30
2019-05-01T21:51:45.993Z,17.20
2019-05-01T21:54:20.665Z,17.20
2019-05-01T21:56:54.784Z,17.10
2019-05-01T21:59:44.041Z,17.10
2019-05-01T22:02:18.546Z,17.10
2019-05-01T22:04:53.183Z,17.20
2019-05-01T22:07:29.168Z,17.10
2019-05-01T22:10:04.885Z,17.10
2019-05-01T22:12:43.983Z,17.10
2019-05-01T22:15:23.195Z,17.20
2019-05-01T22:18:16.549Z,17.10
2019-05-01T22:20:54.314Z,17.10
2019-05-01T22:23:49.146Z,17.10
2019-05-01T22:26:23.655Z,17.20
2019-05-01T22:32:07.803Z,17.40
2019-05-01T22:34:51.848Z,17.40
2019-05-01T22:37:40.432Z,17.30
2019-05-01T22:40:23.004Z,17.40
2019-05-01T22:42:57.794Z,17.50
2019-05-01T22:48:31.205Z,17.50
2019-05-01T22:51:09.019Z,17.40
2019-05-01T22:53:54.250Z,17.50
2019-05-01T22:56:30.996Z,17.60
2019-05-01T22:59:04.598Z,17.50
2019-05-01T23:01:41.722Z,17.60
2019-05-01T23:04:23.302Z,17.60
2019-05-01T23:07:07.602Z,17.70
2019-05-01T23:09:38.045Z,17.80
2019-05-01T23:12:16.608Z,17.70
2019-05-01T23:15:09.304Z,17.70
2019-05-01T23:18:03.223Z,17.80
2019-05-01T23:20:45.423Z,17.80
2019-05-01T23:23:44.306Z,17.90
2019-05-01T23:26:32.517Z,17.90
2019-05-01T23:29:08.732Z,18.00
2019-05-01T23:31:53.465Z,18.10
2019-05-01T23:34:33.809Z,18.00
2019-05-01T23:37:25.805Z,18.10
2019-05-01T23:40:11.005Z,18.10
2019-05-01T23:45:49.210Z,18.20
2019-05-01T23:48:32.865Z,18.20
2019-05-01T23:51:23.679Z,18.20
2019-05-01T23:54:01.228Z,18.30
2019-05-01T23:56:50.828Z,18.30
2019-05-01T23:59:31.227Z,18.30
